Time;durP1;ratioP1;P1;durP2;ratioP2;P2;SDS_P1;SDS_P2;PMS_P1;PMS_P2;Temp;Humidity;BMP_temperature;BMP_pressure;BME280_temperature;BME280_humidity;BME280_pressure;Samples;Min_cycle;Max_cycle;Signal;HPM_P1;HPM_P2
2022/05/29 00:02:31;;;;;;;2.10;1.70;;;;;8.10;96065.00;;;;8417146;28;20680;-68
2022/05/29 00:06:39;;;;;;;7.27;2.00;;;;;8.20;96056.00;;;;8417804;28;20233;-71
2022/05/29 00:10:43;;;;;;;3.60;1.70;;;;;8.30;96059.00;;;;8403675;28;20223;-68
2022/05/29 00:14:48;;;;;;;2.03;1.83;;;;;8.40;96058.00;;;;8401413;28;20238;-69
2022/05/29 00:18:52;;;;;;;4.37;1.90;;;;;8.50;96051.00;;;;8418164;28;20577;-69
2022/05/29 00:22:55;;;;;;;3.80;1.93;;;;;8.50;96048.00;;;;8387259;28;20318;-70
2022/05/29 00:26:58;;;;;;;2.67;2.00;;;;;8.50;96055.00;;;;8403061;28;20309;-69
2022/05/29 00:31:03;;;;;;;6.07;2.40;;;;;8.50;96054.00;;;;8408157;28;20318;-69
2022/05/29 00:35:06;;;;;;;6.77;2.07;;;;;8.50;96048.00;;;;8394002;28;20658;-69
2022/05/29 00:39:13;;;;;;;3.83;1.90;;;;;8.40;96049.00;;;;8395003;28;20316;-70
2022/05/29 00:43:16;;;;;;;5.50;2.23;;;;;8.30;96048.00;;;;8392949;28;20227;-70
2022/05/29 00:47:23;;;;;;;2.87;2.03;;;;;8.30;96045.00;;;;8414877;28;20256;-72
2022/05/29 00:51:27;;;;;;;2.53;2.00;;;;;8.30;96036.00;;;;8386079;28;20335;-69
2022/05/29 00:55:30;;;;;;;7.03;1.77;;;;;8.40;96042.00;;;;8399845;28;20219;-69
2022/05/29 00:59:34;;;;;;;3.87;1.80;;;;;8.40;96032.00;;;;8411977;28;20223;-70
2022/05/29 01:03:38;;;;;;;2.33;1.80;;;;;8.30;96033.00;;;;8403546;28;20237;-69
2022/05/29 01:07:44;;;;;;;4.07;2.30;;;;;8.30;96024.00;;;;8419474;28;20227;-70
2022/05/29 01:12:00;;;;;;;2.83;2.20;;;;;8.30;96025.00;;;;8412785;28;20228;-69
2022/05/29 01:16:10;;;;;;;4.13;1.90;;;;;8.20;96025.00;;;;8386158;28;20232;-68
2022/05/29 01:20:31;;;;;;;3.23;1.80;;;;;8.20;96026.00;;;;8386139;28;20756;-68
2022/05/29 01:25:02;;;;;;;5.23;2.20;;;;;8.10;96022.00;;;;8409847;28;20239;-71
2022/05/29 01:29:09;;;;;;;5.67;2.00;;;;;8.10;96013.00;;;;8398156;28;20255;-69
2022/05/29 01:33:23;;;;;;;3.27;1.90;;;;;8.10;96009.00;;;;8414069;28;20840;-72
2022/05/29 01:37:32;;;;;;;2.80;2.10;;;;;8.00;96008.00;;;;8418109;28;20224;-70
2022/05/29 01:41:39;;;;;;;7.73;2.47;;;;;8.00;96001.00;;;;8417678;28;20231;-68
2022/05/29 01:45:58;;;;;;;2.50;2.07;;;;;7.90;95999.00;;;;8418033;28;20234;-68
2022/05/29 01:50:07;;;;;;;5.63;1.97;;;;;7.80;95998.00;;;;8410094;28;20219;-69
2022/05/29 01:54:15;;;;;;;3.73;2.07;;;;;7.70;95993.00;;;;8417895;28;20768;-67
2022/05/29 01:58:24;;;;;;;6.13;1.87;;;;;7.60;95983.00;;;;8409424;28;20275;-69
2022/05/29 02:02:34;;;;;;;3.37;2.00;;;;;7.50;95979.00;;;;8409618;28;20235;-69
2022/05/29 02:11:07;;;;;;;6.77;3.60;;;;;7.10;95973.00;;;;8416148;28;20320;-70
2022/05/29 02:15:15;;;;;;;2.30;2.10;;;;;6.90;95956.00;;;;8417486;28;20676;-68
2022/05/29 02:19:27;;;;;;;2.67;2.20;;;;;6.70;95950.00;;;;8416324;28;20226;-67
2022/05/29 02:23:34;;;;;;;5.30;2.20;;;;;6.60;95941.00;;;;8413321;28;20226;-72
2022/05/29 02:27:42;;;;;;;2.20;2.00;;;;;6.70;95941.00;;;;8409395;28;20229;-70
2022/05/29 02:31:59;;;;;;;4.03;2.00;;;;;6.80;95937.00;;;;8408375;28;20237;-70
2022/05/29 02:36:20;;;;;;;3.60;2.23;;;;;6.80;95931.00;;;;8415338;28;20236;-73
2022/05/29 02:40:30;;;;;;;3.53;2.27;;;;;6.70;95938.00;;;;8412843;28;20977;-68
2022/05/29 02:44:41;;;;;;;10.70;2.60;;;;;6.50;95928.00;;;;8411804;28;20777;-68
2022/05/29 02:48:50;;;;;;;5.10;2.90;;;;;6.30;95922.00;;;;8405220;28;20244;-71
2022/05/29 02:52:58;;;;;;;4.50;2.60;;;;;6.30;95927.00;;;;8416985;28;20249;-68
2022/05/29 02:57:03;;;;;;;7.87;3.17;;;;;6.30;95920.00;;;;8415747;28;20648;-71
2022/05/29 03:05:17;;;;;;;2.57;2.27;;;;;6.40;95899.00;;;;8367484;28;20218;-74
2022/05/29 03:09:44;;;;;;;9.63;2.63;;;;;6.40;95902.00;;;;8372154;28;20235;-69
2022/05/29 03:13:53;;;;;;;3.97;2.40;;;;;6.50;95891.00;;;;8377080;28;20249;-70
2022/05/29 03:18:05;;;;;;;4.70;2.57;;;;;6.60;95889.00;;;;8382052;28;20230;-68
2022/05/29 03:22:17;;;;;;;2.60;2.40;;;;;6.70;95882.00;;;;8380898;28;20826;-70
2022/05/29 03:26:27;;;;;;;3.60;2.80;;;;;6.90;95876.00;;;;8378701;28;20651;-68
2022/05/29 03:30:33;;;;;;;7.97;2.50;;;;;7.00;95865.00;;;;8375543;28;20318;-69
2022/05/29 03:34:36;;;;;;;7.93;2.93;;;;;7.30;95872.00;;;;8379533;28;20227;-68
2022/05/29 03:38:39;;;;;;;3.23;2.13;;;;;7.60;95866.00;;;;8381711;28;20314;-69
2022/05/29 03:42:44;;;;;;;8.30;2.20;;;;;7.90;95866.00;;;;8380145;28;20398;-70
2022/05/29 03:46:48;;;;;;;4.13;2.20;;;;;8.20;95862.00;;;;8373956;28;20231;-69
2022/05/29 03:50:51;;;;;;;4.20;2.13;;;;;8.40;95862.00;;;;8381412;28;20240;-68
2022/05/29 03:54:54;;;;;;;5.03;2.03;;;;;8.60;95863.00;;;;8381703;28;20244;-71
2022/05/29 03:58:59;;;;;;;2.03;1.80;;;;;8.90;95859.00;;;;8380976;28;20224;-68
2022/05/29 04:03:03;;;;;;;4.43;2.20;;;;;9.30;95851.00;;;;8370446;28;20238;-69
2022/05/29 04:07:07;;;;;;;4.50;2.00;;;;;9.60;95863.00;;;;8395938;28;20576;-72
2022/05/29 04:15:32;;;;;;;1.90;1.80;;;;;9.60;95858.00;;;;8348410;28;20700;-73
2022/05/29 04:19:35;;;;;;;10.17;2.00;;;;;9.60;95864.00;;;;8354686;28;20705;-71
2022/05/29 04:23:38;;;;;;;6.33;2.33;;;;;9.60;95865.00;;;;8349605;28;20228;-67
2022/05/29 04:27:41;;;;;;;4.60;2.10;;;;;9.70;95859.00;;;;8347591;28;20220;-68
2022/05/29 04:36:09;;;;;;;2.03;1.83;;;;;9.70;95853.00;;;;8370138;28;20307;-70
2022/05/29 04:40:13;;;;;;;3.63;2.70;;;;;9.70;95850.00;;;;8374421;28;20679;-70
2022/05/29 04:44:17;;;;;;;2.40;1.80;;;;;9.80;95846.00;;;;8377909;28;20235;-69
2022/05/29 04:48:23;;;;;;;3.70;1.97;;;;;9.80;95842.00;;;;8374242;28;20231;-68
2022/05/29 04:52:28;;;;;;;3.70;1.90;;;;;9.90;95843.00;;;;8374421;28;20250;-69
2022/05/29 04:56:32;;;;;;;3.73;1.97;;;;;10.00;95853.00;;;;8358289;28;20996;-72
2022/05/29 05:00:35;;;;;;;3.80;1.80;;;;;10.10;95849.00;;;;8370392;28;20224;-69
2022/05/29 05:04:40;;;;;;;5.23;2.20;;;;;10.20;95835.00;;;;8359056;28;20570;-71
2022/05/29 05:08:43;;;;;;;4.37;1.97;;;;;10.20;95835.00;;;;8355116;28;20227;-70
2022/05/29 05:12:47;;;;;;;5.20;1.93;;;;;10.20;95838.00;;;;8373131;28;20263;-72
2022/05/29 05:16:50;;;;;;;10.80;3.47;;;;;10.30;95834.00;;;;8382546;28;20237;-68
2022/05/29 05:20:54;;;;;;;5.97;1.90;;;;;10.30;95830.00;;;;8364053;28;20295;-68
2022/05/29 05:24:58;;;;;;;2.33;2.00;;;;;10.30;95832.00;;;;8375686;28;20228;-70
2022/05/29 05:29:02;;;;;;;3.60;1.83;;;;;10.40;95830.00;;;;8372364;28;20225;-67
2022/05/29 05:33:05;;;;;;;5.30;2.27;;;;;10.40;95836.00;;;;8361303;28;20228;-70
2022/05/29 05:37:11;;;;;;;5.87;2.30;;;;;10.50;95830.00;;;;8371051;28;20223;-70
2022/05/29 05:41:16;;;;;;;6.83;2.00;;;;;10.50;95844.00;;;;8352720;28;20730;-71
2022/05/29 05:45:20;;;;;;;4.40;1.93;;;;;10.50;95839.00;;;;8366537;28;20276;-68
2022/05/29 05:49:25;;;;;;;6.10;1.93;;;;;10.60;95833.00;;;;8378947;28;20242;-75
2022/05/29 05:53:29;;;;;;;8.23;2.00;;;;;10.60;95832.00;;;;8376244;28;20246;-78
2022/05/29 05:57:34;;;;;;;5.77;1.97;;;;;10.70;95843.00;;;;8365682;28;20635;-69
2022/05/29 06:01:38;;;;;;;4.57;2.10;;;;;10.90;95827.00;;;;8360626;28;20241;-68
2022/05/29 06:05:42;;;;;;;6.90;2.30;;;;;11.10;95837.00;;;;8360879;28;21159;-73
2022/05/29 06:09:47;;;;;;;6.47;2.37;;;;;11.40;95839.00;;;;8377043;28;20228;-68
2022/05/29 06:13:50;;;;;;;7.27;2.10;;;;;11.70;95843.00;;;;8366175;28;21042;-71
2022/05/29 06:17:53;;;;;;;7.97;2.20;;;;;11.90;95844.00;;;;8360360;28;20608;-69
2022/05/29 06:21:56;;;;;;;6.45;1.95;;;;;12.10;95846.00;;;;8383868;28;20238;-69
2022/05/29 06:26:03;;;;;;;5.45;1.80;;;;;12.20;95846.00;;;;8359661;28;20792;-69
2022/05/29 06:30:10;;;;;;;4.90;1.98;;;;;12.40;95839.00;;;;8362936;28;20235;-70
2022/05/29 06:34:13;;;;;;;3.53;1.70;;;;;12.60;95834.00;;;;8356995;28;20704;-69
2022/05/29 06:38:16;;;;;;;5.13;2.20;;;;;12.80;95829.00;;;;8378849;28;20700;-69
2022/05/29 06:42:20;;;;;;;5.13;1.83;;;;;12.90;95846.00;;;;8371730;28;20221;-70
2022/05/29 06:46:24;;;;;;;7.28;2.20;;;;;13.10;95839.00;;;;8376303;28;20653;-68
2022/05/29 06:50:27;;;;;;;4.53;1.97;;;;;13.10;95835.00;;;;8391180;28;20229;-70
2022/05/29 06:54:30;;;;;;;4.50;1.80;;;;;13.10;95834.00;;;;8382191;28;20261;-66
2022/05/29 06:58:35;;;;;;;10.30;1.80;;;;;13.20;95838.00;;;;8359548;28;20244;-65
2022/05/29 07:07:00;;;;;;;6.40;2.35;;;;;13.20;95847.00;;;;8370176;28;20253;-69
2022/05/29 07:11:06;;;;;;;3.28;1.85;;;;;13.20;95847.00;;;;8367986;28;20224;-66
2022/05/29 07:15:11;;;;;;;2.95;1.52;;;;;13.30;95851.00;;;;8373170;28;20323;-65
2022/05/29 07:19:15;;;;;;;3.58;1.90;;;;;13.50;95854.00;;;;8355398;28;20655;-69
2022/05/29 07:23:19;;;;;;;3.92;1.50;;;;;13.60;95848.00;;;;8399866;28;20257;-67
2022/05/29 07:27:22;;;;;;;3.55;1.90;;;;;13.80;95843.00;;;;8376852;28;20229;-66
2022/05/29 07:31:28;;;;;;;5.15;1.98;;;;;13.80;95847.00;;;;8361571;28;20252;-68
2022/05/29 07:35:31;;;;;;;2.17;1.95;;;;;14.00;95847.00;;;;8377043;28;20232;-66
2022/05/29 07:39:37;;;;;;;5.68;2.00;;;;;14.40;95849.00;;;;8381632;28;20223;-68
2022/05/29 07:43:40;;;;;;;3.67;2.03;;;;;14.80;95846.00;;;;8397421;28;20957;-67
2022/05/29 07:47:46;;;;;;;4.80;2.42;;;;;15.30;95847.00;;;;8395567;28;20237;-68
2022/05/29 07:51:49;;;;;;;8.65;2.30;;;;;15.80;95843.00;;;;8377910;28;20306;-68
2022/05/29 07:55:53;;;;;;;5.38;1.92;;;;;16.20;95843.00;;;;8354214;28;20314;-69
2022/05/29 07:59:56;;;;;;;2.25;1.80;;;;;16.40;95845.00;;;;8362560;28;20221;-66
2022/05/29 08:04:01;;;;;;;3.97;2.05;;;;;16.40;95850.00;;;;8363686;28;20836;-67
2022/05/29 08:08:08;;;;;;;2.92;1.85;;;;;16.70;95844.00;;;;8374495;28;20310;-65
2022/05/29 08:12:11;;;;;;;3.72;2.10;;;;;16.70;95844.00;;;;8366235;28;20233;-70
2022/05/29 08:16:16;;;;;;;3.33;1.83;;;;;16.90;95848.00;;;;8384156;28;20846;-69
2022/05/29 08:20:22;;;;;;;2.53;1.95;;;;;17.40;95846.00;;;;8369098;28;20223;-68
2022/05/29 08:33:24;;;;;;;5.22;2.03;;;;;18.70;95853.00;;;;8363803;28;20335;-70
2022/05/29 08:37:29;;;;;;;6.35;2.10;;;;;19.00;95848.00;;;;8363940;28;20229;-68
2022/05/29 08:41:36;;;;;;;4.00;1.75;;;;;18.70;95851.00;;;;8378187;28;20235;-67
2022/05/29 08:45:40;;;;;;;4.05;1.98;;;;;17.90;95843.00;;;;8364337;28;20302;-68
2022/05/29 08:49:45;;;;;;;4.90;2.47;;;;;17.30;95847.00;;;;8359355;28;20236;-69
2022/05/29 08:54:07;;;;;;;7.30;2.83;;;;;16.90;95846.00;;;;8369061;28;20227;-70
2022/05/29 08:58:23;;;;;;;3.35;1.77;;;;;16.70;95841.00;;;;8364215;28;20230;-71
2022/05/29 09:02:40;;;;;;;3.42;1.95;;;;;16.70;95844.00;;;;8365316;28;20238;-68
2022/05/29 09:06:46;;;;;;;7.13;1.92;;;;;16.60;95846.00;;;;8367800;28;20238;-68
2022/05/29 09:10:54;;;;;;;8.57;1.80;;;;;16.70;95837.00;;;;8376170;28;20231;-70
2022/05/29 09:15:02;;;;;;;3.60;2.08;;;;;16.70;95841.00;;;;8372715;28;20230;-69
2022/05/29 09:19:13;;;;;;;4.38;1.80;;;;;17.00;95833.00;;;;8377646;28;20637;-69
2022/05/29 09:23:21;;;;;;;3.75;1.90;;;;;17.30;95827.00;;;;8358396;28;20236;-69
2022/05/29 09:27:26;;;;;;;1.95;1.50;;;;;17.40;95826.00;;;;8357197;28;20619;-69
2022/05/29 09:31:29;;;;;;;2.65;1.50;;;;;17.70;95812.00;;;;8383431;28;20318;-72
2022/05/29 09:35:40;;;;;;;2.40;1.40;;;;;18.00;95816.00;;;;8358406;28;20783;-71
2022/05/29 09:39:48;;;;;;;2.05;1.40;;;;;18.50;95813.00;;;;8363862;28;20310;-72
2022/05/29 09:44:11;;;;;;;2.97;1.27;;;;;18.80;95814.00;;;;8360575;28;20224;-67
2022/05/29 09:52:54;;;;;;;3.97;1.40;;;;;21.00;95797.00;;;;8367877;28;20685;-70
2022/05/29 09:57:07;;;;;;;3.45;1.40;;;;;21.10;95799.00;;;;8366730;28;20870;-70
2022/05/29 10:01:13;;;;;;;3.22;1.30;;;;;20.70;95800.00;;;;8386633;28;20649;-70
2022/05/29 10:05:25;;;;;;;3.47;1.60;;;;;21.20;95803.00;;;;8301541;28;20749;-69
2022/05/29 10:09:30;;;;;;;1.60;1.33;;;;;21.70;95796.00;;;;8321776;28;20240;-74
2022/05/29 10:13:38;;;;;;;2.40;1.50;;;;;23.10;95791.00;;;;8301062;28;20698;-70
2022/05/29 10:17:43;;;;;;;3.47;1.48;;;;;24.60;95799.00;;;;8297235;28;20610;-69
2022/05/29 10:21:50;;;;;;;5.03;1.48;;;;;24.90;95801.00;;;;8305558;28;20221;-70
2022/05/29 10:25:59;;;;;;;4.72;1.48;;;;;25.90;95794.00;;;;8295114;28;20264;-70
2022/05/29 10:30:06;;;;;;;2.33;1.50;;;;;25.60;95795.00;;;;8299031;28;20312;-72
2022/05/29 10:34:13;;;;;;;1.58;1.35;;;;;24.80;95796.00;;;;8290221;28;20225;-69
2022/05/29 10:38:28;;;;;;;2.13;1.52;;;;;23.90;95797.00;;;;8305016;28;20639;-70
2022/05/29 10:42:41;;;;;;;1.30;1.20;;;;;23.20;95797.00;;;;8288313;28;20687;-72
2022/05/29 10:46:49;;;;;;;4.55;1.55;;;;;22.60;95801.00;;;;8297237;28;20525;-69
2022/05/29 10:51:10;;;;;;;1.33;1.20;;;;;21.70;95806.00;;;;8302836;28;20225;-70
2022/05/29 10:55:32;;;;;;;1.58;1.40;;;;;21.20;95807.00;;;;8294978;28;20237;-69
2022/05/29 11:00:00;;;;;;;2.53;1.08;;;;;20.80;95805.00;;;;8306435;28;20269;-72
2022/05/29 11:04:26;;;;;;;2.70;1.70;;;;;20.00;95817.00;;;;8342248;28;20237;-72
2022/05/29 11:08:42;;;;;;;2.00;1.70;;;;;19.10;95823.00;;;;8350501;28;20949;-70
2022/05/29 11:12:58;;;;;;;3.55;1.85;;;;;18.00;95840.00;;;;8364976;28;20232;-72
2022/05/29 11:17:11;;;;;;;4.25;1.30;;;;;17.20;95837.00;;;;8360076;28;20235;-66
2022/05/29 11:21:25;;;;;;;1.83;1.70;;;;;16.20;95857.00;;;;8350509;28;20233;-67
2022/05/29 11:25:44;;;;;;;2.95;1.83;;;;;15.10;95859.00;;;;8346542;28;20319;-74
2022/05/29 11:30:05;;;;;;;1.77;1.50;;;;;14.30;95863.00;;;;8388501;28;20637;-74
2022/05/29 11:34:21;;;;;;;1.45;1.45;;;;;13.70;95865.00;;;;8369507;28;20226;-73
2022/05/29 11:38:41;;;;;;;2.15;1.63;;;;;13.60;95864.00;;;;8376136;28;20231;-77
2022/05/29 11:42:55;;;;;;;3.35;2.40;;;;;13.50;95864.00;;;;8394509;28;20218;-74
2022/05/29 11:51:32;;;;;;;1.73;1.60;;;;;13.20;95852.00;;;;8367427;28;20354;-76
2022/05/29 11:55:41;;;;;;;1.60;1.50;;;;;12.70;95842.00;;;;8362505;28;20573;-75
2022/05/29 11:59:55;;;;;;;1.60;1.50;;;;;12.30;95833.00;;;;8359185;28;20740;-76
2022/05/29 12:04:02;;;;;;;1.67;1.45;;;;;12.10;95830.00;;;;8369042;28;20693;-78
2022/05/29 12:08:19;;;;;;;1.80;1.70;;;;;12.00;95819.00;;;;8356983;28;20687;-77
2022/05/29 12:12:28;;;;;;;3.35;1.80;;;;;11.90;95808.00;;;;8353267;28;20229;-77
2022/05/29 12:16:36;;;;;;;3.67;1.75;;;;;12.30;95804.00;;;;8365404;28;20275;-74
2022/05/29 12:20:44;;;;;;;3.40;2.50;;;;;12.40;95804.00;;;;8368599;28;20719;-74
2022/05/29 12:24:51;;;;;;;3.25;2.03;;;;;12.50;95796.00;;;;8365305;28;20762;-75
2022/05/29 12:29:01;;;;;;;2.25;1.90;;;;;12.60;95797.00;;;;8355000;28;20244;-73
2022/05/29 12:33:13;;;;;;;5.47;2.00;;;;;12.70;95798.00;;;;8366441;28;20319;-73
2022/05/29 12:37:57;;;;;;;2.20;1.98;;;;;12.60;95801.00;;;;8357983;28;20314;-74
2022/05/29 12:42:20;;;;;;;3.30;1.90;;;;;12.70;95796.00;;;;8373379;28;20225;-79
2022/05/29 12:46:35;;;;;;;1.90;1.58;;;;;12.80;95788.00;;;;8362480;28;20241;-75
2022/05/29 12:51:01;;;;;;;4.65;1.63;;;;;13.20;95793.00;;;;8377444;28;20312;-74
2022/05/29 12:55:33;;;;;;;2.88;1.80;;;;;13.70;95775.00;;;;8354228;28;20257;-76
2022/05/29 12:59:53;;;;;;;4.38;1.63;;;;;14.30;95774.00;;;;8367398;28;20251;-76
2022/05/29 13:04:40;;;;;;;2.55;1.55;;;;;14.80;95786.00;;;;8366811;28;20712;-74
2022/05/29 13:09:02;;;;;;;3.28;1.90;;;;;15.20;95785.00;;;;8355003;28;20331;-76
2022/05/29 13:13:09;;;;;;;2.67;1.55;;;;;15.60;95797.00;;;;8354108;28;20378;-71
2022/05/29 13:17:21;;;;;;;4.80;1.73;;;;;16.00;95789.00;;;;8355635;28;20231;-72
2022/05/29 13:21:24;;;;;;;1.65;1.45;;;;;16.60;95782.00;;;;8383148;28;20610;-75
2022/05/29 13:25:31;;;;;;;2.60;1.55;;;;;17.30;95800.00;;;;8360720;28;20306;-73
2022/05/29 13:29:40;;;;;;;2.97;1.60;;;;;17.50;95800.00;;;;8359561;28;20301;-73
2022/05/29 13:33:53;;;;;;;5.75;1.92;;;;;17.80;95796.00;;;;8360030;28;20311;-75
2022/05/29 13:37:56;;;;;;;3.83;1.52;;;;;18.10;95795.00;;;;8352088;28;20239;-73
2022/05/29 13:42:03;;;;;;;3.67;1.65;;;;;18.50;95789.00;;;;8359815;28;20221;-73
2022/05/29 13:46:21;;;;;;;3.67;1.70;;;;;19.00;95794.00;;;;8369805;28;20242;-70
2022/05/29 13:50:30;;;;;;;5.22;1.60;;;;;19.30;95790.00;;;;8369051;28;20220;-73
2022/05/29 13:54:34;;;;;;;2.45;1.50;;;;;19.70;95790.00;;;;8373107;28;20278;-69
2022/05/29 14:07:30;;;;;;;2.95;1.40;;;;;18.90;95807.00;;;;8371094;28;20238;-71
2022/05/29 14:11:47;;;;;;;1.63;1.45;;;;;18.00;95798.00;;;;8366339;28;20312;-69
2022/05/29 14:15:54;;;;;;;4.43;1.75;;;;;17.50;95787.00;;;;8357866;28;20298;-70
2022/05/29 14:20:28;;;;;;;5.13;1.42;;;;;17.10;95789.00;;;;8364203;28;20240;-74
2022/05/29 14:24:59;;;;;;;5.03;1.88;;;;;16.90;95787.00;;;;8356469;28;20223;-71
2022/05/29 14:29:10;;;;;;;2.35;1.58;;;;;16.70;95775.00;;;;8368366;28;20224;-71
2022/05/29 14:33:35;;;;;;;1.95;1.50;;;;;16.80;95782.00;;;;8366360;28;20250;-71
2022/05/29 14:37:52;;;;;;;1.50;1.40;;;;;17.00;95779.00;;;;8371455;28;20224;-75
2022/05/29 14:42:00;;;;;;;1.65;1.33;;;;;17.60;95776.00;;;;8365532;28;20228;-72
2022/05/29 14:46:11;;;;;;;2.83;1.48;;;;;17.90;95783.00;;;;8364771;28;20807;-69
2022/05/29 14:50:19;;;;;;;3.25;1.50;;;;;17.90;95783.00;;;;8360197;28;20834;-70
2022/05/29 14:54:31;;;;;;;2.65;1.77;;;;;18.50;95787.00;;;;8361880;28;20236;-68
2022/05/29 14:58:37;;;;;;;1.58;1.38;;;;;18.80;95789.00;;;;8348478;28;20231;-69
2022/05/29 15:02:41;;;;;;;1.60;1.20;;;;;18.70;95793.00;;;;8351170;28;20228;-71
2022/05/29 15:11:12;;;;;;;3.13;1.35;;;;;17.60;95779.00;;;;8360582;28;20303;-67
2022/05/29 15:15:23;;;;;;;1.33;1.25;;;;;17.30;95776.00;;;;8361290;28;20590;-68
2022/05/29 15:24:13;;;;;;;1.58;1.10;;;;;17.30;95780.00;;;;8357328;28;20219;-68
2022/05/29 15:28:16;;;;;;;1.27;1.27;;;;;17.40;95779.00;;;;8364403;28;20227;-72
2022/05/29 15:32:23;;;;;;;4.63;1.75;;;;;17.50;95779.00;;;;8360292;28;20242;-69
2022/05/29 15:36:38;;;;;;;1.30;1.30;;;;;17.30;95769.00;;;;8366842;28;20335;-72
2022/05/29 15:40:52;;;;;;;3.03;1.55;;;;;17.20;95777.00;;;;8362806;28;20248;-70
2022/05/29 15:45:10;;;;;;;1.13;1.13;;;;;17.00;95775.00;;;;8364458;28;20230;-67
2022/05/29 15:49:41;;;;;;;1.63;1.13;;;;;16.70;95768.00;;;;8357389;28;20230;-72
2022/05/29 15:54:09;;;;;;;2.90;1.38;;;;;16.60;95783.00;;;;8364301;28;20555;-71
2022/05/29 15:58:29;;;;;;;1.00;1.00;;;;;16.60;95770.00;;;;8364142;28;20932;-68
2022/05/29 16:02:52;;;;;;;1.10;1.10;;;;;17.20;95769.00;;;;8356862;28;20269;-70
2022/05/29 16:07:01;;;;;;;2.95;1.80;;;;;18.10;95763.00;;;;8354711;28;20227;-70
2022/05/29 16:11:07;;;;;;;3.33;1.45;;;;;19.00;95751.00;;;;8360779;28;20307;-71
2022/05/29 16:15:12;;;;;;;4.93;1.80;;;;;19.70;95759.00;;;;8355043;28;20278;-71
2022/05/29 16:19:31;;;;;;;2.03;1.20;;;;;20.10;95757.00;;;;8355863;28;20229;-70
2022/05/29 16:23:45;;;;;;;1.40;1.30;;;;;20.10;95762.00;;;;8355712;28;20232;-69
2022/05/29 16:27:59;;;;;;;2.38;1.08;;;;;20.00;95768.00;;;;8369461;28;20220;-69
2022/05/29 16:32:07;;;;;;;2.53;1.30;;;;;19.80;95767.00;;;;8363586;28;20223;-68
2022/05/29 16:36:24;;;;;;;1.08;1.08;;;;;20.30;95765.00;;;;8367661;28;20662;-69
2022/05/29 16:49:33;;;;;;;2.20;1.10;;;;;19.00;95758.00;;;;8361821;28;20664;-72
2022/05/29 16:53:43;;;;;;;1.70;1.20;;;;;18.70;95751.00;;;;8361565;28;20234;-69
2022/05/29 16:57:49;;;;;;;1.80;1.70;;;;;18.40;95761.00;;;;8369783;28;20643;-68
2022/05/29 17:01:56;;;;;;;3.42;1.20;;;;;18.40;95760.00;;;;8361437;28;20856;-71
2022/05/29 17:06:07;;;;;;;1.27;1.00;;;;;18.60;95755.00;;;;8360882;28;20252;-70
2022/05/29 17:10:16;;;;;;;0.90;0.88;;;;;18.90;95755.00;;;;8361815;28;20220;-67
2022/05/29 17:14:19;;;;;;;1.83;1.00;;;;;19.10;95759.00;;;;8364722;28;20315;-68
2022/05/29 17:18:24;;;;;;;1.95;1.30;;;;;19.00;95765.00;;;;8362554;28;20534;-69
2022/05/29 17:22:38;;;;;;;1.70;1.20;;;;;18.90;95769.00;;;;8366174;28;20310;-68
2022/05/29 17:26:47;;;;;;;1.23;1.20;;;;;19.00;95760.00;;;;8375938;28;20231;-71
2022/05/29 17:30:59;;;;;;;2.65;1.10;;;;;19.10;95767.00;;;;8368595;28;20712;-69
2022/05/29 17:35:06;;;;;;;0.95;0.93;;;;;19.10;95769.00;;;;8362560;28;20264;-70
2022/05/29 17:39:16;;;;;;;3.03;1.70;;;;;19.20;95768.00;;;;8354153;28;20646;-69
2022/05/29 17:43:25;;;;;;;1.45;1.35;;;;;19.30;95762.00;;;;8360861;28;20278;-69
2022/05/29 17:47:38;;;;;;;1.65;1.10;;;;;19.20;95763.00;;;;8363000;28;21185;-69
2022/05/29 17:51:47;;;;;;;1.13;1.08;;;;;19.10;95757.00;;;;8356636;28;20228;-67
2022/05/29 17:55:53;;;;;;;2.35;1.38;;;;;19.00;95752.00;;;;8363221;28;20704;-68
2022/05/29 17:59:57;;;;;;;6.32;1.35;;;;;18.60;95760.00;;;;8360829;28;20265;-69
2022/05/29 18:04:01;;;;;;;3.40;1.20;;;;;18.40;95762.00;;;;8362226;28;20604;-68
2022/05/29 18:08:05;;;;;;;1.00;1.00;;;;;18.10;95766.00;;;;8364343;28;20228;-69
2022/05/29 18:12:16;;;;;;;1.95;1.02;;;;;17.90;95763.00;;;;8358334;28;20856;-69
2022/05/29 18:16:20;;;;;;;1.30;1.30;;;;;17.70;95757.00;;;;8357105;28;20243;-69
2022/05/29 18:20:23;;;;;;;1.10;1.10;;;;;17.60;95756.00;;;;8364736;28;20224;-69
2022/05/29 18:24:27;;;;;;;1.20;0.90;;;;;17.50;95756.00;;;;8365989;28;20932;-69
2022/05/29 18:28:32;;;;;;;1.30;1.30;;;;;17.40;95757.00;;;;8371123;28;20228;-71
2022/05/29 18:32:37;;;;;;;2.13;1.20;;;;;17.20;95759.00;;;;8374746;28;20577;-68
2022/05/29 18:36:41;;;;;;;1.00;1.00;;;;;16.90;95765.00;;;;8371564;28;20612;-69
2022/05/29 18:40:44;;;;;;;1.42;1.33;;;;;16.50;95764.00;;;;8363917;28;20223;-67
2022/05/29 18:44:49;;;;;;;1.30;1.30;;;;;15.80;95777.00;;;;8366653;28;20224;-68
2022/05/29 18:48:52;;;;;;;1.70;1.60;;;;;15.20;95774.00;;;;8364444;28;20318;-69
2022/05/29 18:52:55;;;;;;;3.25;1.70;;;;;14.60;95776.00;;;;8368027;28;20227;-70
2022/05/29 18:57:02;;;;;;;1.70;1.60;;;;;14.20;95769.00;;;;8362225;28;20227;-70
2022/05/29 19:01:10;;;;;;;2.97;1.75;;;;;13.80;95779.00;;;;8365001;28;20233;-70
2022/05/29 19:05:16;;;;;;;2.05;1.88;;;;;13.60;95773.00;;;;8365229;28;20227;-70
2022/05/29 19:09:19;;;;;;;2.50;2.05;;;;;13.40;95775.00;;;;8371261;28;20663;-71
2022/05/29 19:13:22;;;;;;;4.07;2.17;;;;;13.20;95777.00;;;;8367909;28;20656;-71
2022/05/29 19:21:47;;;;;;;4.65;1.83;;;;;13.00;95786.00;;;;8361102;28;20245;-69
2022/05/29 19:25:51;;;;;;;2.63;1.70;;;;;12.90;95791.00;;;;8357456;28;21045;-70
2022/05/29 19:29:57;;;;;;;2.20;2.00;;;;;12.80;95792.00;;;;8368456;28;20772;-70
2022/05/29 19:34:01;;;;;;;5.47;1.90;;;;;12.80;95803.00;;;;8377752;28;20340;-69
2022/05/29 19:38:05;;;;;;;1.60;1.52;;;;;12.70;95801.00;;;;8363785;28;20252;-70
2022/05/29 19:42:09;;;;;;;1.67;1.67;;;;;12.60;95794.00;;;;8370537;28;20750;-69
2022/05/29 19:46:14;;;;;;;1.63;1.50;;;;;12.60;95794.00;;;;8365635;28;20231;-69
2022/05/29 19:50:21;;;;;;;2.13;1.83;;;;;12.50;95792.00;;;;8366804;28;20237;-69
2022/05/29 19:54:24;;;;;;;1.75;1.65;;;;;12.40;95790.00;;;;8364251;28;20929;-69
2022/05/29 19:58:28;;;;;;;2.90;1.85;;;;;12.30;95788.00;;;;8367562;28;20226;-69
2022/05/29 20:02:31;;;;;;;2.88;1.98;;;;;12.10;95794.00;;;;8370259;28;20245;-71
2022/05/29 20:06:39;;;;;;;1.77;1.67;;;;;12.00;95791.00;;;;8361268;28;20261;-70
2022/05/29 20:10:42;;;;;;;2.70;1.90;;;;;11.90;95795.00;;;;8375159;28;20231;-69
2022/05/29 20:14:45;;;;;;;2.53;1.98;;;;;11.80;95787.00;;;;8375842;28;20220;-69
2022/05/29 20:18:49;;;;;;;1.75;1.65;;;;;11.60;95792.00;;;;8375445;28;20817;-68
2022/05/29 20:22:57;;;;;;;2.10;2.00;;;;;11.40;95790.00;;;;8373434;28;20669;-68
2022/05/29 20:27:01;;;;;;;3.83;2.00;;;;;11.30;95793.00;;;;8371051;28;20247;-68
2022/05/29 20:31:05;;;;;;;2.70;1.87;;;;;11.10;95781.00;;;;8368512;28;20255;-68
2022/05/29 20:35:09;;;;;;;1.67;1.65;;;;;10.90;95780.00;;;;8371833;28;20303;-69
2022/05/29 20:39:15;;;;;;;3.20;1.93;;;;;10.80;95782.00;;;;8373905;28;20239;-66
2022/05/29 20:43:18;;;;;;;1.73;1.67;;;;;10.70;95781.00;;;;8371261;28;20235;-69
2022/05/29 20:47:24;;;;;;;2.90;1.90;;;;;10.50;95782.00;;;;8381222;28;20315;-68
2022/05/29 20:51:29;;;;;;;2.40;1.92;;;;;10.40;95779.00;;;;8371560;28;20323;-69
2022/05/29 20:55:33;;;;;;;2.10;1.90;;;;;10.30;95782.00;;;;8371570;28;20703;-70
2022/05/29 20:59:37;;;;;;;2.37;2.17;;;;;10.20;95784.00;;;;8361852;28;20223;-70
2022/05/29 21:03:41;;;;;;;1.93;1.80;;;;;10.10;95790.00;;;;8375136;28;20679;-69
2022/05/29 21:07:44;;;;;;;3.43;1.90;;;;;10.00;95790.00;;;;8375085;28;20236;-69
2022/05/29 21:11:49;;;;;;;2.37;1.90;;;;;9.90;95796.00;;;;8369327;28;20697;-68
2022/05/29 21:15:52;;;;;;;1.97;1.87;;;;;9.80;95795.00;;;;8369847;28;20227;-71
2022/05/29 21:19:56;;;;;;;3.57;2.00;;;;;9.70;95796.00;;;;8372440;28;20239;-69
2022/05/29 21:24:02;;;;;;;2.07;1.90;;;;;9.60;95795.00;;;;8394113;28;20689;-70
2022/05/29 21:28:07;;;;;;;3.60;2.37;;;;;9.40;95789.00;;;;8385435;28;20255;-68
2022/05/29 21:32:10;;;;;;;3.17;2.27;;;;;9.10;95790.00;;;;8380070;28;20227;-69
2022/05/29 21:36:14;;;;;;;3.67;2.10;;;;;8.90;95792.00;;;;8376575;28;21718;-70
2022/05/29 21:40:18;;;;;;;2.30;1.97;;;;;8.60;95779.00;;;;8389924;28;22945;-69
2022/05/29 21:44:23;;;;;;;3.10;2.80;;;;;8.40;95779.00;;;;8404780;28;20231;-69
2022/05/29 21:48:26;;;;;;;3.87;2.40;;;;;8.20;95781.00;;;;8379586;28;20240;-68
2022/05/29 21:52:29;;;;;;;2.93;2.37;;;;;8.00;95781.00;;;;8377503;28;20271;-69
2022/05/29 21:56:33;;;;;;;3.20;2.90;;;;;7.80;95778.00;;;;8374008;28;20229;-68
2022/05/29 22:00:40;;;;;;;5.23;3.03;;;;;7.60;95775.00;;;;8367225;28;20584;-73